createdAt,value
2023-05-09T00:00:18.031Z,23.17
2023-05-09T00:02:47.952Z,20.05
2023-05-09T00:05:15.961Z,25.20
2023-05-09T00:07:43.950Z,22.55
2023-05-09T00:10:11.955Z,17.30
2023-05-09T00:12:39.781Z,27.42
2023-05-09T00:15:09.312Z,21.33
2023-05-09T00:17:38.493Z,22.55
2023-05-09T00:20:12.419Z,22.45
2023-05-09T00:22:41.137Z,24.42
2023-05-09T00:25:10.474Z,18.67
2023-05-09T00:27:38.491Z,15.05
2023-05-09T00:30:07.332Z,16.70
2023-05-09T00:32:35.734Z,20.90
2023-05-09T00:35:03.697Z,18.35
2023-05-09T00:37:32.847Z,19.75
2023-05-09T00:40:00.610Z,18.50
2023-05-09T00:42:28.420Z,22.35
2023-05-09T00:44:56.169Z,18.88
2023-05-09T00:47:24.885Z,21.27
2023-05-09T00:49:52.710Z,17.63
2023-05-09T00:52:23.415Z,14.95
2023-05-09T00:54:53.218Z,14.07
2023-05-09T00:57:21.023Z,26.92
2023-05-09T00:59:48.847Z,18.60
2023-05-09T01:02:18.263Z,17.00
2023-05-09T01:04:46.968Z,16.00
2023-05-09T01:07:20.465Z,23.95
2023-05-09T01:09:56.102Z,27.98
2023-05-09T01:12:31.362Z,20.23
2023-05-09T01:15:04.905Z,32.95
2023-05-09T01:17:40.003Z,20.58
2023-05-09T01:20:15.720Z,20.55
2023-05-09T01:22:48.320Z,31.30
2023-05-09T01:25:39.068Z,29.45
2023-05-09T01:28:15.327Z,27.77
2023-05-09T01:30:48.014Z,21.25
2023-05-09T01:33:20.381Z,26.52
2023-05-09T01:35:52.565Z,24.23
2023-05-09T01:38:24.901Z,29.00
2023-05-09T01:40:55.179Z,25.27
2023-05-09T01:43:26.701Z,24.02
2023-05-09T01:45:57.103Z,26.90
2023-05-09T01:48:27.102Z,19.35
2023-05-09T01:50:55.828Z,21.10
2023-05-09T01:53:25.767Z,24.85
2023-05-09T01:55:53.946Z,25.55
2023-05-09T01:58:23.156Z,30.98
2023-05-09T02:00:52.150Z,21.55
2023-05-09T02:03:22.357Z,25.17
2023-05-09T02:05:51.592Z,21.70
2023-05-09T02:08:21.752Z,18.17
2023-05-09T02:10:50.159Z,28.90
2023-05-09T02:13:18.331Z,19.95
2023-05-09T02:15:46.535Z,22.35
2023-05-09T02:18:14.313Z,21.67
2023-05-09T02:20:43.520Z,22.20
2023-05-09T02:23:11.524Z,18.10
2023-05-09T02:25:40.687Z,16.65
2023-05-09T02:28:10.036Z,19.40
2023-05-09T02:30:42.309Z,23.27
2023-05-09T02:33:12.713Z,18.85
2023-05-09T02:35:43.099Z,19.25
2023-05-09T02:38:13.141Z,22.23
2023-05-09T02:40:43.412Z,18.98
2023-05-09T02:43:11.501Z,15.77
2023-05-09T02:45:39.356Z,20.52
2023-05-09T02:48:08.990Z,21.10
2023-05-09T02:50:38.246Z,25.77
2023-05-09T02:53:06.277Z,29.80
2023-05-09T02:55:38.414Z,24.85
2023-05-09T03:00:42.323Z,25.20
2023-05-09T03:03:10.167Z,22.90
2023-05-09T03:05:38.200Z,22.33
2023-05-09T03:08:06.536Z,28.98
2023-05-09T03:10:35.655Z,30.30
2023-05-09T03:13:03.514Z,24.05
2023-05-09T03:15:31.359Z,24.70
2023-05-09T03:17:59.069Z,42.80
2023-05-09T03:20:27.788Z,54.10
2023-05-09T03:22:55.638Z,52.78
2023-05-09T03:25:26.179Z,84.97
2023-05-09T03:27:55.344Z,47.97
2023-05-09T03:30:23.059Z,55.92
2023-05-09T03:32:50.873Z,49.92
2023-05-09T03:35:18.751Z,36.47
2023-05-09T03:37:46.461Z,35.50
2023-05-09T03:40:14.400Z,33.13
2023-05-09T03:42:42.130Z,36.60
2023-05-09T03:45:12.592Z,42.80
2023-05-09T03:47:40.573Z,34.03
2023-05-09T03:50:09.592Z,33.10
2023-05-09T03:52:37.519Z,33.78
2023-05-09T03:55:05.982Z,34.70
2023-05-09T03:57:35.599Z,40.95
2023-05-09T04:00:04.880Z,26.23
2023-05-09T04:02:34.443Z,31.73
2023-05-09T04:05:04.406Z,33.05
2023-05-09T04:07:32.751Z,28.75
2023-05-09T04:10:01.145Z,27.08
2023-05-09T04:12:28.874Z,30.00
2023-05-09T04:14:56.652Z,32.53
2023-05-09T04:17:24.812Z,32.03
2023-05-09T04:19:54.121Z,32.90
2023-05-09T04:22:22.173Z,30.92
2023-05-09T04:24:50.143Z,26.30
2023-05-09T04:27:17.862Z,28.67
2023-05-09T04:29:45.647Z,28.50
2023-05-09T04:32:14.642Z,32.03
2023-05-09T04:34:42.493Z,29.55
2023-05-09T04:37:11.896Z,26.90
2023-05-09T04:39:39.715Z,24.73
2023-05-09T04:42:07.577Z,35.40
2023-05-09T04:44:35.853Z,32.65
2023-05-09T04:47:03.644Z,31.38
2023-05-09T04:49:31.353Z,24.88
2023-05-09T04:51:59.309Z,28.10
2023-05-09T04:54:28.440Z,23.20
2023-05-09T04:57:03.154Z,27.88
2023-05-09T04:59:34.570Z,28.85
2023-05-09T05:02:02.293Z,22.77
2023-05-09T05:04:30.155Z,25.30
2023-05-09T05:06:57.930Z,20.45
2023-05-09T05:09:25.991Z,26.63
2023-05-09T05:12:01.772Z,22.95
2023-05-09T05:14:31.116Z,20.73
2023-05-09T05:16:58.808Z,25.10
2023-05-09T05:19:26.608Z,28.25
2023-05-09T05:21:57.423Z,25.73
2023-05-09T05:24:25.251Z,20.42
2023-05-09T05:26:52.970Z,20.08
2023-05-09T05:29:22.345Z,19.60
2023-05-09T05:31:50.101Z,21.08
2023-05-09T05:34:18.288Z,19.25
2023-05-09T05:36:46.514Z,17.77
2023-05-09T05:39:14.234Z,20.88
2023-05-09T05:41:42.001Z,22.80
2023-05-09T05:44:09.699Z,19.13
2023-05-09T05:46:38.778Z,18.08
2023-05-09T05:49:06.522Z,21.55
2023-05-09T05:51:34.484Z,25.75
2023-05-09T05:54:02.357Z,24.83
2023-05-09T05:56:30.092Z,17.45
2023-05-09T05:58:57.815Z,16.05
2023-05-09T06:01:25.706Z,23.73
2023-05-09T06:03:56.130Z,20.42
2023-05-09T06:06:24.429Z,24.90
2023-05-09T06:08:52.105Z,15.45
2023-05-09T06:11:21.194Z,19.73
2023-05-09T06:13:48.928Z,16.20
2023-05-09T06:16:19.841Z,15.73
2023-05-09T06:18:48.313Z,19.70
2023-05-09T06:21:17.444Z,19.33
2023-05-09T06:24:01.289Z,29.30
2023-05-09T06:26:30.066Z,19.95
2023-05-09T06:28:57.943Z,23.48
2023-05-09T06:31:26.205Z,16.67
2023-05-09T06:33:54.004Z,16.77
2023-05-09T06:36:23.212Z,16.20
2023-05-09T06:38:50.973Z,17.85
2023-05-09T06:41:18.708Z,19.63
2023-05-09T06:43:46.654Z,25.60
2023-05-09T06:46:14.492Z,35.65
2023-05-09T06:48:42.413Z,23.20
2023-05-09T06:51:11.456Z,19.80
2023-05-09T06:53:40.821Z,21.40
2023-05-09T06:56:08.778Z,17.45
2023-05-09T06:58:36.547Z,17.00
2023-05-09T07:01:06.452Z,19.35
2023-05-09T07:03:34.313Z,15.77
2023-05-09T07:06:02.075Z,17.58
2023-05-09T07:08:29.845Z,20.65
2023-05-09T07:10:59.232Z,14.25
2023-05-09T07:13:27.022Z,18.40
2023-05-09T07:15:54.791Z,14.93
2023-05-09T07:18:22.695Z,25.20
2023-05-09T07:20:51.018Z,17.20
2023-05-09T07:23:18.716Z,12.27
2023-05-09T07:25:46.640Z,15.45
2023-05-09T07:28:15.787Z,12.55
2023-05-09T07:30:43.760Z,11.48
2023-05-09T07:33:11.703Z,15.38
2023-05-09T07:35:39.576Z,12.73
2023-05-09T07:38:07.666Z,14.00
2023-05-09T07:40:36.564Z,11.43
2023-05-09T07:43:04.298Z,14.85
2023-05-09T07:45:33.632Z,11.05
2023-05-09T07:48:01.576Z,12.10
2023-05-09T07:50:29.357Z,13.40
2023-05-09T07:52:57.076Z,8.40
2023-05-09T07:55:24.870Z,9.35
2023-05-09T07:57:52.663Z,8.88
2023-05-09T08:00:23.493Z,11.50
2023-05-09T08:02:53.426Z,9.35
2023-05-09T08:05:21.294Z,9.15
2023-05-09T08:07:49.102Z,8.32
2023-05-09T08:10:17.241Z,10.60
2023-05-09T08:12:45.025Z,8.57
2023-05-09T08:15:13.389Z,6.72
2023-05-09T08:17:41.337Z,6.57
2023-05-09T08:20:13.400Z,8.77
2023-05-09T08:22:41.694Z,9.68
2023-05-09T08:25:10.153Z,5.25
2023-05-09T08:27:37.919Z,6.05
2023-05-09T08:30:07.026Z,8.13
2023-05-09T08:32:34.915Z,8.07
2023-05-09T08:35:02.783Z,8.60
2023-05-09T08:37:31.922Z,7.07
2023-05-09T08:39:59.829Z,8.25
2023-05-09T08:42:29.081Z,7.65
2023-05-09T08:44:57.165Z,6.28
2023-05-09T08:47:26.032Z,11.70
2023-05-09T08:49:54.259Z,7.40
2023-05-09T08:52:22.683Z,10.10
2023-05-09T08:54:53.358Z,5.38
2023-05-09T08:57:21.344Z,7.40
2023-05-09T08:59:50.762Z,7.85
2023-05-09T09:02:19.140Z,10.73
2023-05-09T09:04:47.152Z,6.43
2023-05-09T09:07:18.719Z,9.68
2023-05-09T09:09:48.172Z,8.13
2023-05-09T09:12:18.707Z,8.48
2023-05-09T09:14:50.494Z,8.82
2023-05-09T09:19:51.307Z,6.00
2023-05-09T09:22:20.830Z,9.98
2023-05-09T09:24:48.920Z,7.72
2023-05-09T09:27:18.837Z,4.35
2023-05-09T09:29:46.661Z,7.63
2023-05-09T09:32:14.589Z,4.95
2023-05-09T09:34:42.451Z,6.00
2023-05-09T09:37:10.207Z,3.78
2023-05-09T09:39:38.140Z,4.40
2023-05-09T09:42:13.107Z,3.10
2023-05-09T09:44:42.220Z,4.70
2023-05-09T09:47:11.510Z,2.20
2023-05-09T09:49:46.265Z,4.10
2023-05-09T09:52:25.129Z,3.85
2023-05-09T09:54:56.104Z,9.55
2023-05-09T09:57:35.968Z,3.15
2023-05-09T10:00:06.360Z,5.15
2023-05-09T10:02:34.210Z,7.20
2023-05-09T10:05:08.507Z,2.95
2023-05-09T10:07:39.154Z,8.70
2023-05-09T10:10:07.936Z,6.93
2023-05-09T10:12:41.760Z,6.47
2023-05-09T10:15:13.414Z,3.03
2023-05-09T10:17:41.714Z,4.88
2023-05-09T10:20:10.864Z,2.80
2023-05-09T10:22:42.137Z,2.95
2023-05-09T10:25:16.110Z,3.97
2023-05-09T10:27:48.054Z,4.57
2023-05-09T10:30:19.998Z,3.72
2023-05-09T10:32:53.082Z,4.55
2023-05-09T10:35:25.701Z,8.52
2023-05-09T10:37:56.915Z,4.97
2023-05-09T10:40:25.235Z,4.03
2023-05-09T10:42:52.993Z,4.75
2023-05-09T10:45:23.166Z,6.50
2023-05-09T10:47:53.019Z,4.53
2023-05-09T10:50:22.527Z,6.30
2023-05-09T10:53:14.244Z,7.63
2023-05-09T10:55:50.841Z,5.25
2023-05-09T10:58:23.798Z,4.60
2023-05-09T11:00:55.353Z,5.28
2023-05-09T11:03:25.975Z,3.28
2023-05-09T11:05:55.494Z,4.07
2023-05-09T11:08:26.697Z,6.55
2023-05-09T11:10:55.616Z,5.80
2023-05-09T11:13:25.297Z,7.93
2023-05-09T11:16:22.000Z,3.05
2023-05-09T11:18:55.965Z,3.22
2023-05-09T11:21:23.803Z,7.05
2023-05-09T11:23:55.356Z,7.43
2023-05-09T11:28:54.976Z,2.15
2023-05-09T11:31:24.129Z,7.82
2023-05-09T11:33:58.331Z,2.90
2023-05-09T11:36:32.007Z,4.78
2023-05-09T11:39:07.727Z,5.32
2023-05-09T11:41:41.235Z,2.97
2023-05-09T11:44:16.874Z,3.67
2023-05-09T11:46:46.341Z,5.60
2023-05-09T11:49:14.325Z,11.52
2023-05-09T11:51:42.699Z,3.38
2023-05-09T11:54:14.871Z,3.38
2023-05-09T11:56:43.093Z,2.10
2023-05-09T11:59:13.239Z,5.40
2023-05-09T12:01:43.644Z,5.50
2023-05-09T12:04:13.002Z,4.35
2023-05-09T12:06:48.656Z,4.95
2023-05-09T12:09:16.575Z,5.47
2023-05-09T12:11:50.098Z,2.75
2023-05-09T12:14:28.106Z,3.33
2023-05-09T12:16:55.976Z,3.90
2023-05-09T12:19:26.182Z,8.68
2023-05-09T12:21:58.058Z,3.95
2023-05-09T12:24:26.724Z,3.60
2023-05-09T12:26:54.776Z,3.67
2023-05-09T12:29:23.714Z,9.10
2023-05-09T12:31:53.229Z,6.65
2023-05-09T12:34:21.489Z,3.05
2023-05-09T12:36:51.766Z,3.25
2023-05-09T12:39:21.945Z,5.30
2023-05-09T12:42:01.059Z,3.00
2023-05-09T12:44:30.126Z,5.22
2023-05-09T12:46:59.788Z,4.18
2023-05-09T12:49:28.301Z,2.97
2023-05-09T12:52:04.408Z,3.58
2023-05-09T12:54:32.850Z,4.53
2023-05-09T12:57:01.186Z,3.88
2023-05-09T12:59:31.346Z,3.15
2023-05-09T13:02:01.955Z,5.57
2023-05-09T13:04:30.108Z,4.65
2023-05-09T13:07:00.070Z,5.40
2023-05-09T13:09:28.469Z,3.20
2023-05-09T13:11:56.480Z,9.07
2023-05-09T13:14:24.663Z,4.55
2023-05-09T13:16:52.628Z,4.25
2023-05-09T13:19:22.753Z,3.08
2023-05-09T13:21:50.581Z,4.38
2023-05-09T13:24:19.684Z,4.07
2023-05-09T13:26:47.603Z,3.67
2023-05-09T13:29:15.567Z,3.10
2023-05-09T13:31:43.349Z,6.55
2023-05-09T13:34:11.100Z,2.85
2023-05-09T13:36:38.964Z,3.13
2023-05-09T13:39:06.832Z,7.40
2023-05-09T13:41:37.546Z,4.07
2023-05-09T13:44:06.228Z,2.25
2023-05-09T13:46:35.229Z,3.17
2023-05-09T13:49:03.141Z,2.35
2023-05-09T13:51:30.959Z,8.85
2023-05-09T13:53:58.738Z,2.72
2023-05-09T13:56:26.612Z,3.72
2023-05-09T13:58:55.720Z,2.35
2023-05-09T14:01:23.718Z,5.72
2023-05-09T14:03:52.794Z,3.70
2023-05-09T14:06:20.748Z,3.85
2023-05-09T14:08:48.602Z,5.85
2023-05-09T14:11:16.461Z,5.65
2023-05-09T14:13:44.312Z,2.85
2023-05-09T14:16:13.753Z,2.47
2023-05-09T14:18:41.669Z,4.25
2023-05-09T14:21:09.473Z,2.97
2023-05-09T14:23:37.202Z,1.63
2023-05-09T14:26:05.065Z,7.65
2023-05-09T14:28:32.878Z,2.92
2023-05-09T14:31:00.760Z,2.78
2023-05-09T14:33:29.950Z,5.22
2023-05-09T14:35:57.702Z,5.43
2023-05-09T14:38:25.467Z,5.30
2023-05-09T14:40:53.156Z,5.78
2023-05-09T14:43:22.226Z,5.00
2023-05-09T14:45:49.989Z,4.88
2023-05-09T14:48:17.810Z,1.90
2023-05-09T14:50:46.972Z,5.60
2023-05-09T14:53:15.043Z,1.88
2023-05-09T14:55:43.387Z,4.55
2023-05-09T14:58:13.715Z,2.28
2023-05-09T15:00:41.950Z,3.13
2023-05-09T15:03:10.233Z,4.65
2023-05-09T15:05:38.247Z,3.05
2023-05-09T15:08:08.012Z,5.03
2023-05-09T15:10:35.966Z,5.65
2023-05-09T15:13:05.807Z,5.43
2023-05-09T15:15:33.815Z,3.08
2023-05-09T15:18:02.591Z,3.45
2023-05-09T15:20:30.435Z,1.50
2023-05-09T15:22:58.295Z,4.85
2023-05-09T15:25:27.651Z,4.60
2023-05-09T15:27:55.457Z,5.03
2023-05-09T15:30:23.369Z,3.40
2023-05-09T15:32:51.184Z,2.90
2023-05-09T15:35:19.542Z,6.55
2023-05-09T15:37:47.509Z,5.00
2023-05-09T15:40:15.878Z,6.93
2023-05-09T15:42:48.305Z,4.80
2023-05-09T15:45:16.804Z,4.60
2023-05-09T15:47:44.530Z,4.35
2023-05-09T15:50:13.266Z,3.58
2023-05-09T15:52:41.136Z,2.38
2023-05-09T15:55:10.746Z,7.57
2023-05-09T15:57:38.621Z,5.65
2023-05-09T16:00:10.046Z,3.65
2023-05-09T16:02:37.875Z,5.30
2023-05-09T16:05:06.149Z,5.82
2023-05-09T16:07:35.761Z,3.03
2023-05-09T16:10:03.924Z,4.38
2023-05-09T16:12:32.837Z,2.83
2023-05-09T16:15:03.430Z,1.40
2023-05-09T16:17:33.385Z,4.38
2023-05-09T16:20:01.994Z,9.75
2023-05-09T16:22:29.906Z,3.58
2023-05-09T16:24:57.715Z,4.15
2023-05-09T16:27:25.506Z,5.22
2023-05-09T16:29:53.310Z,3.00
2023-05-09T16:32:21.165Z,2.75
2023-05-09T16:34:50.754Z,2.38
2023-05-09T16:37:19.258Z,1.73
2023-05-09T16:39:47.108Z,5.22
2023-05-09T16:42:14.900Z,5.20
2023-05-09T16:44:42.706Z,6.43
2023-05-09T16:47:10.502Z,1.83
2023-05-09T16:49:38.745Z,4.93
2023-05-09T16:52:07.855Z,2.13
2023-05-09T16:54:36.085Z,4.45
2023-05-09T16:57:03.784Z,2.60
2023-05-09T16:59:32.791Z,2.88
2023-05-09T17:02:00.586Z,4.20
2023-05-09T17:04:29.324Z,13.45
2023-05-09T17:06:57.139Z,10.25
2023-05-09T17:09:26.593Z,2.90
2023-05-09T17:11:54.343Z,5.80
2023-05-09T17:14:22.321Z,7.68
2023-05-09T17:16:50.148Z,3.97
2023-05-09T17:19:19.046Z,5.95
2023-05-09T17:21:46.854Z,6.60
2023-05-09T17:24:14.683Z,7.32
2023-05-09T17:26:43.866Z,5.00
2023-05-09T17:29:11.652Z,6.20
2023-05-09T17:31:39.445Z,9.95
2023-05-09T17:34:07.300Z,5.50
2023-05-09T17:36:35.030Z,7.47
2023-05-09T17:39:02.767Z,5.32
2023-05-09T17:41:30.588Z,9.65
2023-05-09T17:43:59.731Z,8.75
2023-05-09T17:46:27.517Z,18.20
2023-05-09T17:48:55.275Z,5.05
2023-05-09T17:51:25.707Z,7.13
2023-05-09T17:53:53.698Z,4.35
2023-05-09T17:56:22.423Z,5.55
2023-05-09T17:58:52.989Z,5.88
2023-05-09T18:01:22.506Z,5.50
2023-05-09T18:03:50.455Z,11.43
2023-05-09T18:06:19.270Z,6.85
2023-05-09T18:08:47.213Z,5.70
2023-05-09T18:11:15.506Z,6.82
2023-05-09T18:13:43.227Z,7.00
2023-05-09T18:16:10.990Z,5.65
2023-05-09T18:18:42.590Z,6.22
2023-05-09T18:21:10.428Z,7.53
2023-05-09T18:23:38.244Z,7.72
2023-05-09T18:26:06.153Z,7.85
2023-05-09T18:28:39.411Z,5.82
2023-05-09T18:31:09.385Z,7.75
2023-05-09T18:33:41.936Z,5.70
2023-05-09T18:36:11.258Z,10.00
2023-05-09T18:38:39.789Z,8.52
2023-05-09T18:41:09.116Z,11.43
2023-05-09T18:43:38.764Z,9.13
2023-05-09T18:46:07.532Z,12.63
2023-05-09T18:48:35.410Z,8.23
2023-05-09T18:51:04.858Z,8.65
2023-05-09T18:53:32.674Z,15.35
2023-05-09T18:56:01.954Z,12.43
2023-05-09T18:58:29.691Z,8.10
2023-05-09T19:00:57.520Z,9.00
2023-05-09T19:03:25.419Z,9.35
2023-05-09T19:05:53.226Z,9.43
2023-05-09T19:08:22.502Z,14.05
2023-05-09T19:10:50.464Z,8.52
2023-05-09T19:13:18.457Z,11.02
2023-05-09T19:15:49.068Z,10.52
2023-05-09T19:18:16.783Z,7.18
2023-05-09T19:20:44.655Z,7.20
2023-05-09T19:23:12.500Z,8.38
2023-05-09T19:25:41.914Z,6.90
2023-05-09T19:28:11.080Z,10.95
2023-05-09T19:30:38.818Z,10.50
2023-05-09T19:33:06.767Z,8.00
2023-05-09T19:35:34.726Z,12.00
2023-05-09T19:38:02.528Z,8.15
2023-05-09T19:40:30.273Z,8.77
2023-05-09T19:42:59.383Z,9.93
2023-05-09T19:45:28.841Z,8.27
2023-05-09T19:47:58.904Z,8.82
2023-05-09T19:50:26.753Z,10.13
2023-05-09T19:52:54.779Z,9.68
2023-05-09T19:55:23.084Z,7.35
2023-05-09T19:57:51.166Z,9.02
2023-05-09T20:00:22.908Z,9.98
2023-05-09T20:02:50.770Z,10.52
2023-05-09T20:05:18.581Z,12.07
2023-05-09T20:07:46.428Z,8.95
2023-05-09T20:10:15.632Z,9.88
2023-05-09T20:12:43.598Z,10.25
2023-05-09T20:15:12.126Z,11.98
2023-05-09T20:17:41.247Z,10.18
2023-05-09T20:20:10.851Z,10.75
2023-05-09T20:22:38.642Z,10.52
2023-05-09T20:25:07.042Z,13.57
2023-05-09T20:27:35.477Z,4.88
2023-05-09T20:30:03.674Z,5.55
2023-05-09T20:32:31.898Z,8.52
2023-05-09T20:35:01.008Z,5.88
2023-05-09T20:37:28.848Z,4.38
2023-05-09T20:39:56.672Z,6.10
2023-05-09T20:42:24.444Z,11.32
2023-05-09T20:44:52.191Z,24.60
2023-05-09T20:47:19.990Z,5.47
2023-05-09T20:49:47.745Z,5.93
2023-05-09T20:52:16.908Z,6.15
2023-05-09T20:54:44.659Z,6.30
2023-05-09T20:57:12.347Z,12.77
2023-05-09T20:59:40.660Z,6.88
2023-05-09T21:02:08.910Z,5.10
2023-05-09T21:04:36.785Z,4.05
2023-05-09T21:07:04.516Z,5.10
2023-05-09T21:09:33.667Z,6.20
2023-05-09T21:12:03.671Z,2.58
2023-05-09T21:14:31.762Z,2.65
2023-05-09T21:16:59.515Z,3.70
2023-05-09T21:19:27.320Z,13.43
2023-05-09T21:21:55.843Z,4.55
2023-05-09T21:24:23.572Z,7.45
2023-05-09T21:26:53.393Z,2.75
2023-05-09T21:29:21.493Z,2.17
2023-05-09T21:31:49.231Z,1.45
2023-05-09T21:34:16.943Z,5.03
2023-05-09T21:36:44.650Z,3.40
2023-05-09T21:39:12.366Z,1.88
2023-05-09T21:41:42.700Z,4.15
2023-05-09T21:44:12.308Z,1.63
2023-05-09T21:46:41.118Z,4.95
2023-05-09T21:49:08.981Z,0.93
2023-05-09T21:51:36.738Z,2.72
2023-05-09T21:54:04.544Z,2.08
2023-05-09T21:56:32.341Z,2.60
2023-05-09T21:59:00.048Z,2.22
2023-05-09T22:01:29.400Z,1.38
2023-05-09T22:03:57.503Z,2.65
2023-05-09T22:06:25.377Z,3.15
2023-05-09T22:08:53.080Z,3.15
2023-05-09T22:11:21.150Z,2.75
2023-05-09T22:13:48.954Z,3.38
2023-05-09T22:16:17.459Z,3.17
2023-05-09T22:18:46.678Z,2.08
2023-05-09T22:21:14.404Z,4.80
2023-05-09T22:23:42.175Z,3.72
2023-05-09T22:26:09.929Z,7.47
2023-05-09T22:28:38.057Z,3.67
2023-05-09T22:31:06.985Z,6.70
2023-05-09T22:33:34.951Z,4.90
2023-05-09T22:36:04.281Z,5.00
2023-05-09T22:38:32.011Z,1.35
2023-05-09T22:40:59.742Z,3.67
2023-05-09T22:43:33.823Z,6.07
2023-05-09T22:46:06.831Z,1.65
2023-05-09T22:48:34.649Z,7.57
2023-05-09T22:51:02.433Z,3.35
2023-05-09T22:53:32.711Z,7.95
2023-05-09T22:56:00.794Z,6.50
2023-05-09T22:58:28.561Z,3.38
2023-05-09T23:00:56.383Z,2.53
2023-05-09T23:03:24.315Z,5.00
2023-05-09T23:05:52.345Z,2.72
2023-05-09T23:08:20.283Z,5.38
2023-05-09T23:10:49.396Z,3.45
2023-05-09T23:13:17.190Z,2.63
2023-05-09T23:15:45.254Z,2.47
2023-05-09T23:18:13.004Z,7.35
2023-05-09T23:20:40.758Z,2.47
2023-05-09T23:23:08.798Z,4.10
2023-05-09T23:25:36.520Z,2.10
2023-05-09T23:28:05.884Z,1.88
2023-05-09T23:30:33.611Z,4.90
2023-05-09T23:33:01.518Z,1.52
2023-05-09T23:35:29.235Z,8.95
2023-05-09T23:37:57.008Z,1.42
2023-05-09T23:40:24.696Z,1.42
2023-05-09T23:42:52.427Z,7.03
2023-05-09T23:45:22.001Z,5.60
2023-05-09T23:47:50.154Z,1.58
2023-05-09T23:50:18.331Z,2.05
2023-05-09T23:52:49.270Z,3.33
2023-05-09T23:55:17.310Z,1.83
2023-05-09T23:57:45.056Z,3.92
